createdAt,value
2018-04-18T00:01:04.562Z,32.25
2018-04-18T00:03:32.137Z,27.30
2018-04-18T00:05:59.729Z,26.05
2018-04-18T00:08:27.404Z,25.37
2018-04-18T00:10:54.971Z,27.62
2018-04-18T00:13:22.554Z,29.40
2018-04-18T00:15:50.133Z,29.75
2018-04-18T00:18:18.518Z,28.08
2018-04-18T00:20:46.073Z,28.08
2018-04-18T00:23:13.653Z,31.20
2018-04-18T00:25:41.216Z,31.87
2018-04-18T00:28:08.799Z,31.62
2018-04-18T00:30:36.378Z,29.65
2018-04-18T00:33:03.933Z,29.48
2018-04-18T00:35:31.514Z,28.58
2018-04-18T00:37:59.082Z,28.33
2018-04-18T00:40:26.658Z,29.27
2018-04-18T00:42:54.219Z,27.85
2018-04-18T00:45:21.814Z,24.45
2018-04-18T00:47:49.406Z,24.90
2018-04-18T00:50:17.623Z,23.48
2018-04-18T00:52:45.193Z,26.87
2018-04-18T00:55:12.770Z,27.50
2018-04-18T00:57:40.326Z,26.58
2018-04-18T01:00:08.701Z,32.97
2018-04-18T01:02:36.257Z,32.75
2018-04-18T01:05:03.826Z,34.25
2018-04-18T01:07:31.401Z,31.12
2018-04-18T01:09:58.965Z,28.10
2018-04-18T01:12:26.550Z,27.23
2018-04-18T01:14:54.113Z,27.02
2018-04-18T01:17:21.701Z,27.30
2018-04-18T01:19:49.278Z,23.50
2018-04-18T01:22:17.651Z,24.08
2018-04-18T01:24:45.232Z,26.65
2018-04-18T01:27:12.817Z,27.87
2018-04-18T01:29:41.158Z,28.83
2018-04-18T01:32:08.737Z,29.98
2018-04-18T01:34:36.306Z,29.73
2018-04-18T01:37:03.877Z,34.25
2018-04-18T01:39:31.438Z,29.60
2018-04-18T01:41:59.025Z,31.17
2018-04-18T01:44:26.598Z,34.55
2018-04-18T01:46:54.159Z,34.00
2018-04-18T01:49:36.610Z,27.55
2018-04-18T01:52:04.161Z,27.85
2018-04-18T01:54:31.747Z,24.55
2018-04-18T01:56:59.297Z,26.80
2018-04-18T01:59:26.881Z,25.23
2018-04-18T02:01:54.437Z,29.02
2018-04-18T02:04:22.033Z,31.48
2018-04-18T02:06:49.605Z,25.55
2018-04-18T02:09:17.209Z,24.75
2018-04-18T02:11:44.809Z,22.02
2018-04-18T02:14:12.393Z,21.92
2018-04-18T02:16:39.968Z,22.55
2018-04-18T02:19:07.546Z,24.92
2018-04-18T02:21:35.102Z,23.00
2018-04-18T02:24:02.693Z,24.90
2018-04-18T02:26:30.255Z,26.50
2018-04-18T02:28:57.849Z,25.98
2018-04-18T02:31:25.407Z,29.50
2018-04-18T02:33:52.987Z,23.73
2018-04-18T02:36:20.566Z,25.10
2018-04-18T02:38:48.159Z,23.55
2018-04-18T02:41:15.737Z,22.08
2018-04-18T02:43:43.301Z,26.95
2018-04-18T02:46:10.882Z,23.55
2018-04-18T02:48:38.449Z,23.42
2018-04-18T02:51:06.037Z,23.42
2018-04-18T02:53:33.604Z,21.62
2018-04-18T02:56:01.207Z,22.70
2018-04-18T02:58:28.854Z,20.08
2018-04-18T03:00:57.239Z,23.73
2018-04-18T03:03:25.585Z,24.80
2018-04-18T03:05:53.178Z,26.77
2018-04-18T03:08:20.750Z,25.00
2018-04-18T03:10:49.114Z,26.95
2018-04-18T03:13:16.697Z,26.42
2018-04-18T03:15:44.265Z,27.27
2018-04-18T03:18:11.841Z,27.00
2018-04-18T03:20:39.394Z,25.35
2018-04-18T03:23:07.319Z,24.52
2018-04-18T03:25:34.914Z,24.63
2018-04-18T03:28:02.674Z,28.17
2018-04-18T03:30:30.256Z,30.48
2018-04-18T03:32:57.859Z,25.20
2018-04-18T03:35:25.429Z,27.95
2018-04-18T03:37:53.013Z,26.12
2018-04-18T03:40:20.569Z,19.80
2018-04-18T03:42:48.909Z,21.27
2018-04-18T03:45:16.467Z,25.42
2018-04-18T03:47:44.041Z,26.92
2018-04-18T03:50:11.595Z,21.90
2018-04-18T03:52:39.178Z,20.62
2018-04-18T03:55:06.733Z,24.42
2018-04-18T03:57:34.324Z,23.15
2018-04-18T04:00:01.921Z,21.08
2018-04-18T04:02:29.552Z,20.35
2018-04-18T04:04:57.194Z,20.83
2018-04-18T04:07:25.542Z,23.85
2018-04-18T04:09:53.894Z,23.05
2018-04-18T04:12:22.218Z,24.12
2018-04-18T04:14:49.874Z,19.33
2018-04-18T04:17:29.330Z,19.70
2018-04-18T04:20:08.913Z,20.80
2018-04-18T04:22:48.293Z,21.67
2018-04-18T04:25:17.482Z,21.87
2018-04-18T04:27:45.045Z,21.73
2018-04-18T04:30:13.547Z,21.45
2018-04-18T04:32:41.109Z,20.73
2018-04-18T04:35:08.686Z,21.25
2018-04-18T04:37:36.257Z,27.05
2018-04-18T04:40:03.858Z,23.23
2018-04-18T04:42:32.194Z,20.77
2018-04-18T04:44:59.797Z,21.75
2018-04-18T04:47:27.441Z,20.08
2018-04-18T04:49:55.042Z,20.77
2018-04-18T04:52:22.718Z,20.90
2018-04-18T04:54:50.298Z,21.58
2018-04-18T04:57:17.970Z,21.85
2018-04-18T04:59:47.046Z,21.98
2018-04-18T05:02:14.717Z,24.85
2018-04-18T05:04:42.330Z,22.23
2018-04-18T05:07:09.905Z,22.25
2018-04-18T05:09:37.458Z,22.52
2018-04-18T05:12:05.072Z,23.20
2018-04-18T05:14:33.462Z,23.67
2018-04-18T05:17:01.835Z,24.30
2018-04-18T05:19:29.430Z,21.12
2018-04-18T05:21:57.861Z,24.37
2018-04-18T05:24:25.486Z,23.15
2018-04-18T05:26:53.855Z,25.45
2018-04-18T05:29:21.458Z,24.35
2018-04-18T05:31:49.798Z,24.52
2018-04-18T05:34:17.387Z,23.17
2018-04-18T05:36:44.974Z,24.98
2018-04-18T05:39:12.549Z,26.80
2018-04-18T05:41:40.109Z,28.00
2018-04-18T05:44:07.691Z,29.15
2018-04-18T05:46:35.283Z,30.80
2018-04-18T05:49:03.642Z,33.10
2018-04-18T05:51:31.206Z,33.55
2018-04-18T05:53:58.852Z,32.17
2018-04-18T05:56:26.466Z,33.10
2018-04-18T05:58:54.828Z,34.08
2018-04-18T06:01:22.409Z,33.83
2018-04-18T06:03:50.005Z,27.87
2018-04-18T06:06:17.587Z,35.67
2018-04-18T06:08:45.137Z,36.33
2018-04-18T06:11:12.727Z,36.10
2018-04-18T06:13:40.289Z,37.45
2018-04-18T06:16:08.653Z,36.78
2018-04-18T06:18:36.210Z,38.75
2018-04-18T06:21:03.805Z,39.28
2018-04-18T06:23:31.507Z,39.95
2018-04-18T06:25:59.128Z,36.92
2018-04-18T06:28:26.693Z,37.20
2018-04-18T06:30:54.284Z,38.15
2018-04-18T06:33:21.870Z,37.58
2018-04-18T06:35:49.463Z,37.35
2018-04-18T06:38:17.026Z,35.50
2018-04-18T06:40:44.615Z,35.78
2018-04-18T06:43:12.184Z,33.70
2018-04-18T06:45:39.785Z,34.10
2018-04-18T06:48:08.147Z,35.70
2018-04-18T06:50:35.714Z,30.60
2018-04-18T06:53:03.315Z,33.78
2018-04-18T06:55:31.693Z,34.95
2018-04-18T06:58:00.117Z,33.00
2018-04-18T07:00:27.684Z,29.80
2018-04-18T07:02:55.274Z,30.33
2018-04-18T07:05:22.834Z,25.25
2018-04-18T07:07:50.422Z,28.95
2018-04-18T07:10:17.986Z,27.25
2018-04-18T07:12:45.568Z,31.80
2018-04-18T07:15:13.128Z,29.77
2018-04-18T07:17:40.710Z,32.25
2018-04-18T07:20:08.288Z,31.98
2018-04-18T07:22:35.898Z,28.38
2018-04-18T07:25:03.502Z,30.70
2018-04-18T07:27:31.917Z,31.80
2018-04-18T07:29:59.513Z,30.67
2018-04-18T07:32:27.089Z,31.55
2018-04-18T07:34:54.674Z,26.50
2018-04-18T07:37:22.241Z,28.20
2018-04-18T07:39:49.825Z,26.20
2018-04-18T07:42:17.394Z,29.77
2018-04-18T07:44:44.982Z,30.48
2018-04-18T07:47:12.558Z,31.37
2018-04-18T07:49:40.137Z,27.60
2018-04-18T07:52:08.476Z,32.58
2018-04-18T07:54:36.097Z,25.90
2018-04-18T07:57:04.470Z,32.50
2018-04-18T07:59:32.108Z,31.58
2018-04-18T08:01:59.772Z,26.00
2018-04-18T08:04:27.346Z,28.77
2018-04-18T08:06:54.913Z,25.42
2018-04-18T08:09:22.531Z,24.83
2018-04-18T08:11:50.094Z,22.97
2018-04-18T08:14:17.706Z,20.90
2018-04-18T08:16:46.041Z,18.93
2018-04-18T08:19:13.603Z,14.23
2018-04-18T08:21:41.194Z,13.37
2018-04-18T08:24:08.791Z,17.03
2018-04-18T08:26:36.393Z,13.82
2018-04-18T08:29:03.971Z,14.47
2018-04-18T08:31:31.590Z,15.63
2018-04-18T08:33:59.258Z,13.57
2018-04-18T08:36:26.861Z,10.27
2018-04-18T08:38:54.430Z,7.80
2018-04-18T08:41:22.036Z,12.93
2018-04-18T08:43:49.610Z,9.20
2018-04-18T08:46:17.189Z,10.00
2018-04-18T08:48:44.744Z,7.67
2018-04-18T08:51:13.087Z,7.83
2018-04-18T08:53:40.653Z,10.27
2018-04-18T08:56:08.271Z,7.87
2018-04-18T08:58:36.616Z,7.57
2018-04-18T09:01:04.201Z,8.50
2018-04-18T09:03:31.867Z,5.47
2018-04-18T09:05:59.456Z,7.47
2018-04-18T09:08:27.049Z,9.13
2018-04-18T09:10:54.614Z,8.33
2018-04-18T09:13:22.202Z,8.07
2018-04-18T09:15:50.579Z,7.43
2018-04-18T09:18:18.129Z,8.17
2018-04-18T09:20:45.686Z,7.80
2018-04-18T09:23:13.270Z,6.40
2018-04-18T09:25:40.825Z,7.67
2018-04-18T09:28:08.409Z,5.80
2018-04-18T09:30:36.051Z,7.07
2018-04-18T09:33:03.769Z,6.07
2018-04-18T09:35:31.454Z,7.10
2018-04-18T09:37:59.125Z,7.77
2018-04-18T09:40:26.706Z,7.10
2018-04-18T09:42:55.090Z,7.60
2018-04-18T09:45:22.681Z,6.50
2018-04-18T09:47:51.006Z,6.00
2018-04-18T09:50:18.585Z,6.67
2018-04-18T09:52:46.156Z,6.90
2018-04-18T09:55:13.735Z,6.80
2018-04-18T09:57:41.373Z,6.30
2018-04-18T10:00:08.995Z,7.57
2018-04-18T10:02:37.504Z,7.17
2018-04-18T10:05:07.890Z,6.33
2018-04-18T10:07:36.261Z,6.30
2018-04-18T10:10:04.634Z,6.10
2018-04-18T10:12:32.262Z,7.70
2018-04-18T10:14:59.938Z,7.60
2018-04-18T10:17:27.599Z,6.60
2018-04-18T10:19:55.204Z,7.07
2018-04-18T10:22:22.768Z,8.10
2018-04-18T10:24:50.329Z,7.00
2018-04-18T10:27:17.906Z,8.47
2018-04-18T10:29:45.470Z,7.87
2018-04-18T10:32:13.054Z,7.20
2018-04-18T10:34:40.618Z,6.23
2018-04-18T10:37:08.209Z,7.67
2018-04-18T10:39:35.806Z,7.37
2018-04-18T10:42:03.434Z,6.90
2018-04-18T10:44:30.993Z,7.57
2018-04-18T10:46:58.581Z,8.20
2018-04-18T10:49:26.142Z,7.10
2018-04-18T10:51:53.733Z,6.90
2018-04-18T10:54:21.294Z,6.53
2018-04-18T10:56:48.880Z,6.80
2018-04-18T10:59:16.456Z,6.97
2018-04-18T11:01:44.109Z,7.00
2018-04-18T11:04:11.716Z,7.40
2018-04-18T11:06:39.496Z,6.60
2018-04-18T11:09:07.219Z,6.73
2018-04-18T11:11:34.819Z,6.70
2018-04-18T11:14:02.516Z,6.90
2018-04-18T11:16:30.084Z,6.13
2018-04-18T11:18:57.666Z,5.60
2018-04-18T11:21:25.989Z,7.30
2018-04-18T11:23:54.339Z,5.63
2018-04-18T11:26:22.694Z,6.60
2018-04-18T11:28:50.269Z,5.93
2018-04-18T11:31:17.847Z,5.93
2018-04-18T11:33:45.508Z,5.70
2018-04-18T11:36:13.126Z,6.23
2018-04-18T11:38:40.831Z,7.10
2018-04-18T11:41:09.683Z,6.17
2018-04-18T11:43:37.461Z,6.53
2018-04-18T11:46:05.018Z,6.43
2018-04-18T11:48:32.617Z,6.67
2018-04-18T11:51:00.181Z,6.20
2018-04-18T11:53:27.749Z,6.60
2018-04-18T11:55:55.478Z,6.63
2018-04-18T11:58:23.841Z,6.20
2018-04-18T12:00:52.261Z,6.47
2018-04-18T12:03:20.691Z,7.37
2018-04-18T12:05:48.622Z,6.50
2018-04-18T12:08:16.302Z,5.70
2018-04-18T12:10:44.665Z,5.63
2018-04-18T12:13:12.229Z,6.10
2018-04-18T12:15:39.827Z,5.97
2018-04-18T12:18:07.397Z,6.30
2018-04-18T12:20:35.002Z,5.80
2018-04-18T12:23:03.334Z,6.30
2018-04-18T12:25:30.918Z,5.00
2018-04-18T12:27:58.486Z,5.20
2018-04-18T12:30:26.097Z,4.97
2018-04-18T12:32:54.505Z,4.53
2018-04-18T12:35:22.113Z,4.33
2018-04-18T12:37:49.788Z,4.67
2018-04-18T12:40:17.516Z,4.43
2018-04-18T12:42:46.177Z,4.30
2018-04-18T12:45:13.747Z,4.93
2018-04-18T12:47:42.093Z,4.43
2018-04-18T12:50:09.657Z,4.60
2018-04-18T12:52:38.005Z,4.30
2018-04-18T12:55:05.586Z,4.33
2018-04-18T12:57:35.997Z,3.50
2018-04-18T13:00:04.294Z,4.00
2018-04-18T13:02:31.918Z,4.80
2018-04-18T13:04:59.538Z,5.03
2018-04-18T13:07:27.281Z,4.70
2018-04-18T13:09:54.852Z,4.23
2018-04-18T13:12:22.496Z,4.60
2018-04-18T13:14:50.039Z,4.40
2018-04-18T13:17:17.627Z,4.57
2018-04-18T13:19:45.204Z,4.43
2018-04-18T13:22:12.770Z,4.20
2018-04-18T13:24:40.356Z,4.27
2018-04-18T13:27:07.964Z,4.37
2018-04-18T13:29:35.616Z,4.00
2018-04-18T13:32:03.978Z,5.30
2018-04-18T13:34:31.622Z,5.07
2018-04-18T13:36:59.444Z,4.77
2018-04-18T13:39:27.904Z,4.57
2018-04-18T13:41:55.510Z,4.40
2018-04-18T13:44:23.129Z,4.67
2018-04-18T13:46:50.695Z,4.90
2018-04-18T13:49:18.285Z,4.93
2018-04-18T13:51:45.846Z,3.67
2018-04-18T13:54:13.434Z,5.43
2018-04-18T13:56:40.997Z,4.63
2018-04-18T13:59:08.618Z,4.00
2018-04-18T14:01:36.233Z,4.63
2018-04-18T14:04:03.846Z,6.00
2018-04-18T14:06:31.481Z,5.10
2018-04-18T14:08:59.117Z,5.13
2018-04-18T14:11:26.863Z,4.60
2018-04-18T14:13:54.451Z,4.63
2018-04-18T14:16:22.070Z,3.93
2018-04-18T14:18:49.630Z,4.57
2018-04-18T14:21:17.978Z,4.10
2018-04-18T14:23:45.540Z,5.30
2018-04-18T14:26:13.127Z,4.73
2018-04-18T14:28:40.694Z,3.80
2018-04-18T14:31:08.292Z,4.73
2018-04-18T14:33:35.853Z,4.83
2018-04-18T14:36:03.479Z,7.67
2018-04-18T14:38:31.101Z,6.90
2018-04-18T14:40:58.807Z,6.90
2018-04-18T14:43:26.577Z,6.63
2018-04-18T14:45:54.310Z,6.73
2018-04-18T14:48:22.617Z,5.60
2018-04-18T14:50:50.174Z,5.73
2018-04-18T14:53:17.780Z,5.60
2018-04-18T14:55:46.114Z,5.60
2018-04-18T14:58:13.692Z,5.70
2018-04-18T15:00:41.250Z,5.93
2018-04-18T15:03:08.831Z,5.17
2018-04-18T15:05:36.386Z,6.57
2018-04-18T15:08:03.998Z,6.40
2018-04-18T15:10:31.580Z,5.87
2018-04-18T15:12:59.269Z,6.53
2018-04-18T15:15:26.976Z,6.50
2018-04-18T15:17:54.641Z,7.27
2018-04-18T15:20:22.216Z,6.63
2018-04-18T15:22:49.797Z,6.10
2018-04-18T15:25:17.364Z,5.60
2018-04-18T15:27:44.945Z,6.63
2018-04-18T15:30:12.501Z,6.13
2018-04-18T15:32:40.089Z,6.03
2018-04-18T15:35:07.666Z,5.33
2018-04-18T15:37:35.254Z,5.33
2018-04-18T15:40:02.908Z,5.57
2018-04-18T15:42:31.238Z,5.40
2018-04-18T15:44:58.918Z,5.73
2018-04-18T15:47:26.749Z,6.50
2018-04-18T15:49:54.365Z,6.87
2018-04-18T15:52:21.965Z,5.30
2018-04-18T15:54:50.325Z,5.90
2018-04-18T15:57:17.953Z,5.30
2018-04-18T15:59:45.520Z,5.40
2018-04-18T16:02:13.853Z,5.93
2018-04-18T16:04:41.435Z,5.53
2018-04-18T16:07:08.995Z,5.50
2018-04-18T16:09:36.602Z,5.73
2018-04-18T16:12:04.209Z,5.97
2018-04-18T16:14:31.817Z,5.80
2018-04-18T16:16:59.496Z,5.33
2018-04-18T16:19:27.956Z,6.20
2018-04-18T16:21:55.566Z,5.83
2018-04-18T16:24:23.213Z,5.63
2018-04-18T16:26:50.830Z,5.53
2018-04-18T16:29:30.323Z,5.30
2018-04-18T16:31:57.984Z,5.00
2018-04-18T16:34:25.609Z,5.17
2018-04-18T16:36:53.233Z,5.57
2018-04-18T16:39:20.824Z,4.77
2018-04-18T16:41:48.427Z,5.10
2018-04-18T16:44:15.992Z,4.87
2018-04-18T16:46:43.569Z,4.40
2018-04-18T16:49:11.145Z,4.90
2018-04-18T16:51:38.728Z,4.30
2018-04-18T16:54:06.315Z,4.93
2018-04-18T16:56:34.017Z,4.27
2018-04-18T16:59:01.621Z,4.60
2018-04-18T17:01:29.258Z,4.47
2018-04-18T17:03:57.697Z,3.77
2018-04-18T17:06:26.141Z,4.07
2018-04-18T17:08:53.805Z,4.37
2018-04-18T17:11:22.181Z,4.93
2018-04-18T17:13:49.767Z,4.17
2018-04-18T17:16:17.319Z,3.80
2018-04-18T17:18:44.897Z,4.00
2018-04-18T17:21:12.458Z,4.43
2018-04-18T17:23:40.056Z,4.03
2018-04-18T17:26:07.617Z,4.07
2018-04-18T17:28:35.247Z,4.53
2018-04-18T17:31:02.859Z,4.40
2018-04-18T17:33:30.619Z,3.93
2018-04-18T17:35:59.104Z,4.27
2018-04-18T17:38:27.397Z,5.30
2018-04-18T17:40:55.028Z,4.50
2018-04-18T17:43:22.561Z,4.10
2018-04-18T17:45:50.142Z,4.70
2018-04-18T17:48:17.701Z,4.00
2018-04-18T17:50:45.286Z,5.27
2018-04-18T17:53:12.848Z,4.20
2018-04-18T17:55:40.424Z,4.17
2018-04-18T17:58:08.159Z,4.70
2018-04-18T18:00:35.817Z,4.63
2018-04-18T18:03:03.558Z,4.77
2018-04-18T18:05:31.958Z,5.37
2018-04-18T18:08:00.530Z,4.87
2018-04-18T18:10:28.270Z,4.87
2018-04-18T18:12:55.909Z,5.87
2018-04-18T18:15:23.553Z,5.33
2018-04-18T18:17:51.136Z,5.55
2018-04-18T18:20:18.753Z,5.50
2018-04-18T18:22:46.318Z,4.65
2018-04-18T18:25:13.917Z,5.68
2018-04-18T18:27:41.567Z,5.82
2018-04-18T18:30:09.959Z,5.55
2018-04-18T18:32:37.633Z,6.15
2018-04-18T18:35:05.310Z,5.97
2018-04-18T18:37:33.046Z,6.15
2018-04-18T18:40:00.806Z,7.10
2018-04-18T18:42:28.434Z,6.22
2018-04-18T18:44:56.022Z,6.05
2018-04-18T18:47:23.618Z,7.72
2018-04-18T18:49:51.207Z,6.95
2018-04-18T18:52:18.810Z,6.72
2018-04-18T18:54:47.141Z,7.03
2018-04-18T18:57:14.723Z,6.45
2018-04-18T18:59:42.293Z,8.15
2018-04-18T19:02:09.886Z,7.45
2018-04-18T19:04:37.470Z,8.07
2018-04-18T19:07:05.119Z,8.18
2018-04-18T19:09:32.933Z,8.15
2018-04-18T19:12:00.602Z,8.02
2018-04-18T19:14:29.145Z,8.50
2018-04-18T19:16:56.718Z,9.55
2018-04-18T19:19:24.298Z,8.90
2018-04-18T19:21:51.865Z,11.05
2018-04-18T19:24:19.459Z,9.07
2018-04-18T19:26:47.022Z,9.00
2018-04-18T19:29:14.610Z,9.90
2018-04-18T19:31:42.182Z,9.27
2018-04-18T19:34:09.795Z,10.63
2018-04-18T19:36:37.442Z,9.35
2018-04-18T19:39:05.069Z,9.35
2018-04-18T19:41:32.724Z,9.77
2018-04-18T19:44:00.512Z,10.60
2018-04-18T19:46:28.101Z,11.02
2018-04-18T19:48:55.662Z,10.45
2018-04-18T19:51:23.237Z,10.70
2018-04-18T19:53:50.797Z,11.15
2018-04-18T19:56:18.384Z,10.93
2018-04-18T19:58:45.952Z,11.05
2018-04-18T20:01:13.533Z,9.55
2018-04-18T20:03:41.125Z,11.02
2018-04-18T20:06:08.725Z,10.88
2018-04-18T20:08:37.083Z,11.95
2018-04-18T20:11:04.743Z,10.20
2018-04-18T20:13:33.241Z,11.32
2018-04-18T20:16:00.903Z,10.88
2018-04-18T20:18:28.570Z,11.82
2018-04-18T20:20:56.158Z,11.65
2018-04-18T20:23:23.724Z,10.60
2018-04-18T20:25:51.326Z,11.98
2018-04-18T20:28:24.737Z,11.80
2018-04-18T20:30:52.305Z,12.13
2018-04-18T20:33:20.633Z,11.20
2018-04-18T20:35:48.962Z,11.12
2018-04-18T20:38:16.542Z,12.27
2018-04-18T20:40:44.142Z,12.52
2018-04-18T20:43:11.756Z,12.80
2018-04-18T20:45:39.347Z,11.48
2018-04-18T20:48:06.937Z,12.07
2018-04-18T20:50:34.517Z,12.65
2018-04-18T20:53:02.105Z,10.80
2018-04-18T20:55:29.709Z,11.45
2018-04-18T20:57:57.278Z,13.20
2018-04-18T21:00:25.607Z,12.30
2018-04-18T21:02:53.181Z,11.85
2018-04-18T21:05:20.762Z,12.93
2018-04-18T21:07:48.346Z,12.48
2018-04-18T21:10:15.923Z,14.68
2018-04-18T21:12:43.526Z,12.30
2018-04-18T21:15:11.120Z,13.55
2018-04-18T21:17:38.774Z,12.85
2018-04-18T21:20:07.152Z,13.18
2018-04-18T21:22:34.741Z,13.70
2018-04-18T21:25:03.090Z,14.48
2018-04-18T21:27:30.653Z,14.50
2018-04-18T21:29:58.229Z,13.90
2018-04-18T21:32:25.790Z,14.25
2018-04-18T21:34:53.365Z,12.57
2018-04-18T21:37:20.934Z,15.02
2018-04-18T21:39:48.523Z,12.77
2018-04-18T21:42:16.106Z,13.55
2018-04-18T21:44:43.718Z,14.32
2018-04-18T21:47:12.070Z,14.95
2018-04-18T21:49:39.706Z,14.57
2018-04-18T21:52:07.295Z,14.70
2018-04-18T21:54:34.883Z,13.90
2018-04-18T21:57:02.483Z,13.93
2018-04-18T21:59:30.845Z,14.07
2018-04-18T22:01:58.404Z,14.63
2018-04-18T22:04:25.968Z,13.73
2018-04-18T22:06:53.549Z,14.48
2018-04-18T22:09:21.112Z,13.98
2018-04-18T22:11:48.715Z,14.20
2018-04-18T22:14:16.287Z,14.73
2018-04-18T22:16:43.971Z,15.02
2018-04-18T22:19:11.561Z,14.98
2018-04-18T22:21:39.164Z,14.50
2018-04-18T22:24:06.746Z,12.95
2018-04-18T22:26:34.351Z,13.77
2018-04-18T22:29:01.917Z,14.13
2018-04-18T22:31:29.505Z,15.43
2018-04-18T22:33:57.065Z,13.65
2018-04-18T22:36:24.636Z,15.23
2018-04-18T22:38:52.209Z,13.48
2018-04-18T22:41:19.781Z,12.80
2018-04-18T22:43:47.372Z,13.38
2018-04-18T22:46:14.950Z,13.43
2018-04-18T22:48:42.541Z,14.40
2018-04-18T22:51:10.158Z,12.15
2018-04-18T22:53:37.766Z,14.32
2018-04-18T22:56:05.338Z,11.98
2018-04-18T22:58:32.964Z,11.77
2018-04-18T23:01:00.520Z,11.48
2018-04-18T23:03:28.094Z,12.40
2018-04-18T23:05:55.649Z,12.82
2018-04-18T23:08:23.988Z,12.40
2018-04-18T23:10:51.542Z,11.98
2018-04-18T23:13:19.112Z,12.35
2018-04-18T23:15:46.680Z,11.45
2018-04-18T23:18:14.249Z,12.68
2018-04-18T23:20:41.852Z,13.65
2018-04-18T23:23:09.424Z,13.60
2018-04-18T23:25:37.014Z,13.15
2018-04-18T23:28:04.600Z,12.43
2018-04-18T23:30:32.969Z,13.57
2018-04-18T23:33:00.529Z,13.23
2018-04-18T23:35:28.109Z,13.60
2018-04-18T23:37:55.662Z,11.95
2018-04-18T23:40:23.241Z,13.18
2018-04-18T23:42:50.798Z,13.32
2018-04-18T23:45:18.394Z,13.68
2018-04-18T23:47:45.952Z,11.63
2018-04-18T23:50:13.541Z,12.48
2018-04-18T23:52:41.141Z,13.62
2018-04-18T23:55:09.503Z,12.50
2018-04-18T23:57:37.077Z,12.95
